sensor_id;sensor_type;location;lat;lon;timestamp;P1;durP1;ratioP1;P2;durP2;ratioP2
44646;SDS011;56315;-33.902;151.160;2023-06-22T00:00:14;15.55;;;7.82;;
44646;SDS011;56315;-33.902;151.160;2023-06-22T00:02:41;15.60;;;9.38;;
44646;SDS011;56315;-33.902;151.160;2023-06-22T00:05:09;14.70;;;7.25;;
44646;SDS011;56315;-33.902;151.160;2023-06-22T00:07:36;10.70;;;6.60;;
44646;SDS011;56315;-33.902;151.160;2023-06-22T00:10:03;10.70;;;6.32;;
44646;SDS011;56315;-33.902;151.160;2023-06-22T00:12:31;9.60;;;5.70;;
44646;SDS011;56315;-33.902;151.160;2023-06-22T00:14:58;13.43;;;6.63;;
44646;SDS011;56315;-33.902;151.160;2023-06-22T00:17:26;12.13;;;6.30;;
44646;SDS011;56315;-33.902;151.160;2023-06-22T00:19:53;11.50;;;6.30;;
44646;SDS011;56315;-33.902;151.160;2023-06-22T00:22:21;9.45;;;5.95;;
44646;SDS011;56315;-33.902;151.160;2023-06-22T00:24:55;11.13;;;5.00;;
44646;SDS011;56315;-33.902;151.160;2023-06-22T00:27:22;9.20;;;5.15;;
44646;SDS011;56315;-33.902;151.160;2023-06-22T00:29:49;10.55;;;5.50;;
44646;SDS011;56315;-33.902;151.160;2023-06-22T00:32:17;11.95;;;5.20;;
44646;SDS011;56315;-33.902;151.160;2023-06-22T00:34:44;9.85;;;6.32;;
44646;SDS011;56315;-33.902;151.160;2023-06-22T00:37:11;16.83;;;6.93;;
44646;SDS011;56315;-33.902;151.160;2023-06-22T00:39:39;14.70;;;6.90;;
44646;SDS011;56315;-33.902;151.160;2023-06-22T00:42:06;10.98;;;6.47;;
44646;SDS011;56315;-33.902;151.160;2023-06-22T00:44:33;10.93;;;6.43;;
44646;SDS011;56315;-33.902;151.160;2023-06-22T00:47:01;11.45;;;8.05;;
44646;SDS011;56315;-33.902;151.160;2023-06-22T00:49:29;14.38;;;6.88;;
44646;SDS011;56315;-33.902;151.160;2023-06-22T00:51:57;13.02;;;6.78;;
44646;SDS011;56315;-33.902;151.160;2023-06-22T00:54:24;13.60;;;5.95;;
44646;SDS011;56315;-33.902;151.160;2023-06-22T00:56:52;12.50;;;5.97;;
44646;SDS011;56315;-33.902;151.160;2023-06-22T00:59:21;14.10;;;6.00;;
44646;SDS011;56315;-33.902;151.160;2023-06-22T01:01:49;11.13;;;5.43;;
44646;SDS011;56315;-33.902;151.160;2023-06-22T01:04:16;9.40;;;4.57;;
44646;SDS011;56315;-33.902;151.160;2023-06-22T01:06:58;13.23;;;4.95;;
44646;SDS011;56315;-33.902;151.160;2023-06-22T01:09:31;8.00;;;5.00;;
44646;SDS011;56315;-33.902;151.160;2023-06-22T01:12:04;10.88;;;5.68;;
44646;SDS011;56315;-33.902;151.160;2023-06-22T01:14:38;12.80;;;6.18;;
44646;SDS011;56315;-33.902;151.160;2023-06-22T01:17:12;6.05;;;4.63;;
44646;SDS011;56315;-33.902;151.160;2023-06-22T01:19:44;7.85;;;5.40;;
44646;SDS011;56315;-33.902;151.160;2023-06-22T01:22:18;9.77;;;5.63;;
44646;SDS011;56315;-33.902;151.160;2023-06-22T01:28:20;8.95;;;5.90;;
44646;SDS011;56315;-33.902;151.160;2023-06-22T01:30:49;7.20;;;4.28;;
44646;SDS011;56315;-33.902;151.160;2023-06-22T01:33:31;8.68;;;5.47;;
44646;SDS011;56315;-33.902;151.160;2023-06-22T01:36:01;7.82;;;5.00;;
44646;SDS011;56315;-33.902;151.160;2023-06-22T01:38:30;9.77;;;6.72;;
44646;SDS011;56315;-33.902;151.160;2023-06-22T01:40:59;13.75;;;8.88;;
44646;SDS011;56315;-33.902;151.160;2023-06-22T01:43:27;9.90;;;5.03;;
44646;SDS011;56315;-33.902;151.160;2023-06-22T01:45:56;8.18;;;4.78;;
44646;SDS011;56315;-33.902;151.160;2023-06-22T01:48:25;10.15;;;3.63;;
44646;SDS011;56315;-33.902;151.160;2023-06-22T01:50:54;12.65;;;4.53;;
44646;SDS011;56315;-33.902;151.160;2023-06-22T01:53:22;11.88;;;5.20;;
44646;SDS011;56315;-33.902;151.160;2023-06-22T01:55:51;15.05;;;5.40;;
44646;SDS011;56315;-33.902;151.160;2023-06-22T01:58:18;14.40;;;4.68;;
44646;SDS011;56315;-33.902;151.160;2023-06-22T02:01:06;9.35;;;3.95;;
44646;SDS011;56315;-33.902;151.160;2023-06-22T02:03:41;6.75;;;3.25;;
44646;SDS011;56315;-33.902;151.160;2023-06-22T02:06:25;14.93;;;4.15;;
44646;SDS011;56315;-33.902;151.160;2023-06-22T02:09:02;7.80;;;3.85;;
44646;SDS011;56315;-33.902;151.160;2023-06-22T02:11:33;13.35;;;4.47;;
44646;SDS011;56315;-33.902;151.160;2023-06-22T02:14:03;9.45;;;4.90;;
44646;SDS011;56315;-33.902;151.160;2023-06-22T02:16:31;11.63;;;4.60;;
44646;SDS011;56315;-33.902;151.160;2023-06-22T02:19:00;11.95;;;3.92;;
44646;SDS011;56315;-33.902;151.160;2023-06-22T02:21:31;10.88;;;4.18;;
44646;SDS011;56315;-33.902;151.160;2023-06-22T02:23:59;12.10;;;4.45;;
44646;SDS011;56315;-33.902;151.160;2023-06-22T02:26:26;13.07;;;4.10;;
44646;SDS011;56315;-33.902;151.160;2023-06-22T02:28:54;9.63;;;4.30;;
44646;SDS011;56315;-33.902;151.160;2023-06-22T02:31:22;5.63;;;2.28;;
44646;SDS011;56315;-33.902;151.160;2023-06-22T02:33:58;6.78;;;3.05;;
44646;SDS011;56315;-33.902;151.160;2023-06-22T02:36:26;8.25;;;4.07;;
44646;SDS011;56315;-33.902;151.160;2023-06-22T02:38:57;9.95;;;4.03;;
44646;SDS011;56315;-33.902;151.160;2023-06-22T02:41:26;9.43;;;4.13;;
44646;SDS011;56315;-33.902;151.160;2023-06-22T02:43:54;9.80;;;3.95;;
44646;SDS011;56315;-33.902;151.160;2023-06-22T02:46:21;12.07;;;4.40;;
44646;SDS011;56315;-33.902;151.160;2023-06-22T02:48:48;11.45;;;3.45;;
44646;SDS011;56315;-33.902;151.160;2023-06-22T02:51:16;6.55;;;2.35;;
44646;SDS011;56315;-33.902;151.160;2023-06-22T02:53:43;7.82;;;2.88;;
44646;SDS011;56315;-33.902;151.160;2023-06-22T02:56:10;11.32;;;3.20;;
44646;SDS011;56315;-33.902;151.160;2023-06-22T02:58:38;8.77;;;2.70;;
44646;SDS011;56315;-33.902;151.160;2023-06-22T03:01:06;10.05;;;3.05;;
44646;SDS011;56315;-33.902;151.160;2023-06-22T03:03:33;7.78;;;3.00;;
44646;SDS011;56315;-33.902;151.160;2023-06-22T03:06:00;8.18;;;2.40;;
44646;SDS011;56315;-33.902;151.160;2023-06-22T03:08:28;8.23;;;2.63;;
44646;SDS011;56315;-33.902;151.160;2023-06-22T03:10:55;5.60;;;3.08;;
44646;SDS011;56315;-33.902;151.160;2023-06-22T03:13:23;11.63;;;2.95;;
44646;SDS011;56315;-33.902;151.160;2023-06-22T03:15:50;5.28;;;2.60;;
44646;SDS011;56315;-33.902;151.160;2023-06-22T03:18:18;5.63;;;2.20;;
44646;SDS011;56315;-33.902;151.160;2023-06-22T03:20:47;4.88;;;2.38;;
44646;SDS011;56315;-33.902;151.160;2023-06-22T03:23:15;9.02;;;2.70;;
44646;SDS011;56315;-33.902;151.160;2023-06-22T03:25:42;5.90;;;2.70;;
44646;SDS011;56315;-33.902;151.160;2023-06-22T03:28:12;9.15;;;2.92;;
44646;SDS011;56315;-33.902;151.160;2023-06-22T03:30:39;5.90;;;2.30;;
44646;SDS011;56315;-33.902;151.160;2023-06-22T03:33:06;7.85;;;2.25;;
44646;SDS011;56315;-33.902;151.160;2023-06-22T03:35:34;8.27;;;2.50;;
44646;SDS011;56315;-33.902;151.160;2023-06-22T03:38:01;10.65;;;2.72;;
44646;SDS011;56315;-33.902;151.160;2023-06-22T03:40:28;7.80;;;2.50;;
44646;SDS011;56315;-33.902;151.160;2023-06-22T03:42:56;4.80;;;2.50;;
44646;SDS011;56315;-33.902;151.160;2023-06-22T03:45:23;6.90;;;3.00;;
44646;SDS011;56315;-33.902;151.160;2023-06-22T03:47:50;6.78;;;3.08;;
44646;SDS011;56315;-33.902;151.160;2023-06-22T03:50:17;6.25;;;2.47;;
44646;SDS011;56315;-33.902;151.160;2023-06-22T03:52:46;6.00;;;2.63;;
44646;SDS011;56315;-33.902;151.160;2023-06-22T03:55:14;6.22;;;3.00;;
44646;SDS011;56315;-33.902;151.160;2023-06-22T03:57:41;6.22;;;2.80;;
44646;SDS011;56315;-33.902;151.160;2023-06-22T04:00:08;7.55;;;3.17;;
44646;SDS011;56315;-33.902;151.160;2023-06-22T04:02:36;10.25;;;2.75;;
44646;SDS011;56315;-33.902;151.160;2023-06-22T04:05:04;6.55;;;2.60;;
44646;SDS011;56315;-33.902;151.160;2023-06-22T04:07:31;10.65;;;3.55;;
44646;SDS011;56315;-33.902;151.160;2023-06-22T04:09:58;10.82;;;2.90;;
44646;SDS011;56315;-33.902;151.160;2023-06-22T04:12:26;7.38;;;2.88;;
44646;SDS011;56315;-33.902;151.160;2023-06-22T04:14:53;10.07;;;2.95;;
44646;SDS011;56315;-33.902;151.160;2023-06-22T04:17:20;8.90;;;3.08;;
44646;SDS011;56315;-33.902;151.160;2023-06-22T04:19:50;7.63;;;2.45;;
44646;SDS011;56315;-33.902;151.160;2023-06-22T04:22:18;8.45;;;3.35;;
44646;SDS011;56315;-33.902;151.160;2023-06-22T04:24:45;8.43;;;3.08;;
44646;SDS011;56315;-33.902;151.160;2023-06-22T04:27:12;10.60;;;3.10;;
44646;SDS011;56315;-33.902;151.160;2023-06-22T04:29:39;9.55;;;3.83;;
44646;SDS011;56315;-33.902;151.160;2023-06-22T04:32:16;10.60;;;3.72;;
44646;SDS011;56315;-33.902;151.160;2023-06-22T04:34:44;11.10;;;3.40;;
44646;SDS011;56315;-33.902;151.160;2023-06-22T04:37:11;9.73;;;4.00;;
44646;SDS011;56315;-33.902;151.160;2023-06-22T04:39:41;11.60;;;3.40;;
44646;SDS011;56315;-33.902;151.160;2023-06-22T04:42:09;12.38;;;3.50;;
44646;SDS011;56315;-33.902;151.160;2023-06-22T04:44:36;7.55;;;3.28;;
44646;SDS011;56315;-33.902;151.160;2023-06-22T04:47:05;8.27;;;2.80;;
44646;SDS011;56315;-33.902;151.160;2023-06-22T04:49:34;9.75;;;2.88;;
44646;SDS011;56315;-33.902;151.160;2023-06-22T04:52:06;11.07;;;2.88;;
44646;SDS011;56315;-33.902;151.160;2023-06-22T04:54:35;5.03;;;3.00;;
44646;SDS011;56315;-33.902;151.160;2023-06-22T04:57:04;8.32;;;2.42;;
44646;SDS011;56315;-33.902;151.160;2023-06-22T04:59:36;8.63;;;2.80;;
44646;SDS011;56315;-33.902;151.160;2023-06-22T05:02:07;6.60;;;2.78;;
44646;SDS011;56315;-33.902;151.160;2023-06-22T05:04:35;6.20;;;2.65;;
44646;SDS011;56315;-33.902;151.160;2023-06-22T05:07:06;7.32;;;2.70;;
44646;SDS011;56315;-33.902;151.160;2023-06-22T05:09:33;11.50;;;4.07;;
44646;SDS011;56315;-33.902;151.160;2023-06-22T05:12:01;8.30;;;2.50;;
44646;SDS011;56315;-33.902;151.160;2023-06-22T05:14:30;5.93;;;2.67;;
44646;SDS011;56315;-33.902;151.160;2023-06-22T05:16:57;10.40;;;2.80;;
44646;SDS011;56315;-33.902;151.160;2023-06-22T05:19:25;12.57;;;3.33;;
44646;SDS011;56315;-33.902;151.160;2023-06-22T05:22:00;8.25;;;3.22;;
44646;SDS011;56315;-33.902;151.160;2023-06-22T05:24:27;8.07;;;2.10;;
44646;SDS011;56315;-33.902;151.160;2023-06-22T05:26:54;5.18;;;2.35;;
44646;SDS011;56315;-33.902;151.160;2023-06-22T05:29:21;9.43;;;2.75;;
44646;SDS011;56315;-33.902;151.160;2023-06-22T05:31:49;8.60;;;2.50;;
44646;SDS011;56315;-33.902;151.160;2023-06-22T05:34:16;7.22;;;3.30;;
44646;SDS011;56315;-33.902;151.160;2023-06-22T05:36:43;7.63;;;3.13;;
44646;SDS011;56315;-33.902;151.160;2023-06-22T05:39:11;10.38;;;3.25;;
44646;SDS011;56315;-33.902;151.160;2023-06-22T05:41:40;12.35;;;3.35;;
44646;SDS011;56315;-33.902;151.160;2023-06-22T05:44:10;10.25;;;3.30;;
44646;SDS011;56315;-33.902;151.160;2023-06-22T05:46:42;10.75;;;3.05;;
44646;SDS011;56315;-33.902;151.160;2023-06-22T05:49:12;9.95;;;3.92;;
44646;SDS011;56315;-33.902;151.160;2023-06-22T05:51:40;9.10;;;3.03;;
44646;SDS011;56315;-33.902;151.160;2023-06-22T05:54:08;7.45;;;2.78;;
44646;SDS011;56315;-33.902;151.160;2023-06-22T05:56:35;9.32;;;2.70;;
44646;SDS011;56315;-33.902;151.160;2023-06-22T05:59:03;14.77;;;3.13;;
44646;SDS011;56315;-33.902;151.160;2023-06-22T06:01:31;8.82;;;2.75;;
44646;SDS011;56315;-33.902;151.160;2023-06-22T06:04:02;14.80;;;3.30;;
44646;SDS011;56315;-33.902;151.160;2023-06-22T06:06:30;7.22;;;3.00;;
44646;SDS011;56315;-33.902;151.160;2023-06-22T06:08:57;8.68;;;3.88;;
44646;SDS011;56315;-33.902;151.160;2023-06-22T06:11:25;12.18;;;6.10;;
44646;SDS011;56315;-33.902;151.160;2023-06-22T06:13:52;20.55;;;10.45;;
44646;SDS011;56315;-33.902;151.160;2023-06-22T06:16:19;26.85;;;13.10;;
44646;SDS011;56315;-33.902;151.160;2023-06-22T06:18:46;50.53;;;38.03;;
44646;SDS011;56315;-33.902;151.160;2023-06-22T06:21:16;97.13;;;77.20;;
44646;SDS011;56315;-33.902;151.160;2023-06-22T06:23:43;97.32;;;70.72;;
44646;SDS011;56315;-33.902;151.160;2023-06-22T06:26:10;73.50;;;55.03;;
44646;SDS011;56315;-33.902;151.160;2023-06-22T06:28:38;42.55;;;30.67;;
44646;SDS011;56315;-33.902;151.160;2023-06-22T06:31:06;28.17;;;16.13;;
44646;SDS011;56315;-33.902;151.160;2023-06-22T06:33:34;21.15;;;11.88;;
44646;SDS011;56315;-33.902;151.160;2023-06-22T06:36:02;20.70;;;10.70;;
44646;SDS011;56315;-33.902;151.160;2023-06-22T06:38:30;21.15;;;9.65;;
44646;SDS011;56315;-33.902;151.160;2023-06-22T06:40:58;16.77;;;11.60;;
44646;SDS011;56315;-33.902;151.160;2023-06-22T06:43:25;24.08;;;11.00;;
44646;SDS011;56315;-33.902;151.160;2023-06-22T06:45:52;20.38;;;10.85;;
44646;SDS011;56315;-33.902;151.160;2023-06-22T06:48:19;16.58;;;10.27;;
44646;SDS011;56315;-33.902;151.160;2023-06-22T06:50:47;30.60;;;11.82;;
44646;SDS011;56315;-33.902;151.160;2023-06-22T06:53:14;23.67;;;11.63;;
44646;SDS011;56315;-33.902;151.160;2023-06-22T06:55:41;23.13;;;12.68;;
44646;SDS011;56315;-33.902;151.160;2023-06-22T06:58:10;19.27;;;12.45;;
44646;SDS011;56315;-33.902;151.160;2023-06-22T07:00:39;23.73;;;12.80;;
44646;SDS011;56315;-33.902;151.160;2023-06-22T07:03:06;21.27;;;13.52;;
44646;SDS011;56315;-33.902;151.160;2023-06-22T07:05:34;20.38;;;12.25;;
44646;SDS011;56315;-33.902;151.160;2023-06-22T07:08:02;25.38;;;13.98;;
44646;SDS011;56315;-33.902;151.160;2023-06-22T07:10:29;21.20;;;12.82;;
44646;SDS011;56315;-33.902;151.160;2023-06-22T07:12:56;22.27;;;14.00;;
44646;SDS011;56315;-33.902;151.160;2023-06-22T07:15:24;24.83;;;13.13;;
44646;SDS011;56315;-33.902;151.160;2023-06-22T07:17:51;22.50;;;14.18;;
44646;SDS011;56315;-33.902;151.160;2023-06-22T07:20:18;25.63;;;15.15;;
44646;SDS011;56315;-33.902;151.160;2023-06-22T07:22:45;26.25;;;15.15;;
44646;SDS011;56315;-33.902;151.160;2023-06-22T07:25:13;29.60;;;18.80;;
44646;SDS011;56315;-33.902;151.160;2023-06-22T07:27:45;37.08;;;33.08;;
44646;SDS011;56315;-33.902;151.160;2023-06-22T07:30:23;33.45;;;21.80;;
44646;SDS011;56315;-33.902;151.160;2023-06-22T07:32:51;28.33;;;17.05;;
44646;SDS011;56315;-33.902;151.160;2023-06-22T07:35:18;25.02;;;16.38;;
44646;SDS011;56315;-33.902;151.160;2023-06-22T07:37:46;25.30;;;16.02;;
44646;SDS011;56315;-33.902;151.160;2023-06-22T07:40:13;30.25;;;14.77;;
44646;SDS011;56315;-33.902;151.160;2023-06-22T07:42:40;26.02;;;16.38;;
44646;SDS011;56315;-33.902;151.160;2023-06-22T07:45:07;27.10;;;17.30;;
44646;SDS011;56315;-33.902;151.160;2023-06-22T07:47:35;27.63;;;18.08;;
44646;SDS011;56315;-33.902;151.160;2023-06-22T07:50:03;25.88;;;16.90;;
44646;SDS011;56315;-33.902;151.160;2023-06-22T07:52:30;27.92;;;17.15;;
44646;SDS011;56315;-33.902;151.160;2023-06-22T07:54:58;28.67;;;16.98;;
44646;SDS011;56315;-33.902;151.160;2023-06-22T07:57:25;24.55;;;16.02;;
44646;SDS011;56315;-33.902;151.160;2023-06-22T07:59:59;27.63;;;15.02;;
44646;SDS011;56315;-33.902;151.160;2023-06-22T08:02:29;23.73;;;15.07;;
44646;SDS011;56315;-33.902;151.160;2023-06-22T08:04:56;26.17;;;14.95;;
44646;SDS011;56315;-33.902;151.160;2023-06-22T08:07:24;23.88;;;15.45;;
44646;SDS011;56315;-33.902;151.160;2023-06-22T08:09:51;26.98;;;16.02;;
44646;SDS011;56315;-33.902;151.160;2023-06-22T08:12:18;28.70;;;16.60;;
44646;SDS011;56315;-33.902;151.160;2023-06-22T08:14:46;27.08;;;16.15;;
44646;SDS011;56315;-33.902;151.160;2023-06-22T08:17:13;29.23;;;15.63;;
44646;SDS011;56315;-33.902;151.160;2023-06-22T08:19:40;24.35;;;17.08;;
44646;SDS011;56315;-33.902;151.160;2023-06-22T08:22:07;26.42;;;15.93;;
44646;SDS011;56315;-33.902;151.160;2023-06-22T08:24:35;27.83;;;15.98;;
44646;SDS011;56315;-33.902;151.160;2023-06-22T08:27:02;30.88;;;16.70;;
44646;SDS011;56315;-33.902;151.160;2023-06-22T08:29:29;27.85;;;16.85;;
44646;SDS011;56315;-33.902;151.160;2023-06-22T08:31:57;21.58;;;13.68;;
44646;SDS011;56315;-33.902;151.160;2023-06-22T08:34:24;32.22;;;18.48;;
44646;SDS011;56315;-33.902;151.160;2023-06-22T08:36:53;31.92;;;19.13;;
44646;SDS011;56315;-33.902;151.160;2023-06-22T08:39:20;23.63;;;15.27;;
44646;SDS011;56315;-33.902;151.160;2023-06-22T08:41:48;24.90;;;15.32;;
44646;SDS011;56315;-33.902;151.160;2023-06-22T08:44:17;33.88;;;19.70;;
44646;SDS011;56315;-33.902;151.160;2023-06-22T08:46:45;28.42;;;18.02;;
44646;SDS011;56315;-33.902;151.160;2023-06-22T08:49:12;25.65;;;14.50;;
44646;SDS011;56315;-33.902;151.160;2023-06-22T08:51:40;28.30;;;14.60;;
44646;SDS011;56315;-33.902;151.160;2023-06-22T08:54:10;26.13;;;14.38;;
44646;SDS011;56315;-33.902;151.160;2023-06-22T08:56:37;29.00;;;16.50;;
44646;SDS011;56315;-33.902;151.160;2023-06-22T08:59:04;24.83;;;15.95;;
44646;SDS011;56315;-33.902;151.160;2023-06-22T09:01:33;26.42;;;14.27;;
44646;SDS011;56315;-33.902;151.160;2023-06-22T09:04:00;20.10;;;13.02;;
44646;SDS011;56315;-33.902;151.160;2023-06-22T09:06:29;20.98;;;12.85;;
44646;SDS011;56315;-33.902;151.160;2023-06-22T09:08:58;26.20;;;15.10;;
44646;SDS011;56315;-33.902;151.160;2023-06-22T09:11:29;21.15;;;12.98;;
44646;SDS011;56315;-33.902;151.160;2023-06-22T09:13:57;22.73;;;14.15;;
44646;SDS011;56315;-33.902;151.160;2023-06-22T09:16:24;19.88;;;12.63;;
44646;SDS011;56315;-33.902;151.160;2023-06-22T09:18:51;20.35;;;13.27;;
44646;SDS011;56315;-33.902;151.160;2023-06-22T09:21:19;18.65;;;12.60;;
44646;SDS011;56315;-33.902;151.160;2023-06-22T09:23:46;20.60;;;13.20;;
44646;SDS011;56315;-33.902;151.160;2023-06-22T09:26:19;23.15;;;13.25;;
44646;SDS011;56315;-33.902;151.160;2023-06-22T09:28:49;23.63;;;14.13;;
44646;SDS011;56315;-33.902;151.160;2023-06-22T09:31:17;18.98;;;13.05;;
44646;SDS011;56315;-33.902;151.160;2023-06-22T09:33:51;21.55;;;11.50;;
44646;SDS011;56315;-33.902;151.160;2023-06-22T09:36:20;25.20;;;13.93;;
44646;SDS011;56315;-33.902;151.160;2023-06-22T09:38:48;27.35;;;14.73;;
44646;SDS011;56315;-33.902;151.160;2023-06-22T09:41:24;23.77;;;14.18;;
44646;SDS011;56315;-33.902;151.160;2023-06-22T09:43:51;24.67;;;15.40;;
44646;SDS011;56315;-33.902;151.160;2023-06-22T09:46:18;21.73;;;14.02;;
44646;SDS011;56315;-33.902;151.160;2023-06-22T09:48:48;18.92;;;12.90;;
44646;SDS011;56315;-33.902;151.160;2023-06-22T09:51:15;25.05;;;12.63;;
44646;SDS011;56315;-33.902;151.160;2023-06-22T09:53:44;21.98;;;14.00;;
44646;SDS011;56315;-33.902;151.160;2023-06-22T09:56:12;20.73;;;13.25;;
44646;SDS011;56315;-33.902;151.160;2023-06-22T09:58:43;22.88;;;15.02;;
44646;SDS011;56315;-33.902;151.160;2023-06-22T10:01:12;22.95;;;14.00;;
44646;SDS011;56315;-33.902;151.160;2023-06-22T10:03:43;24.55;;;14.82;;
44646;SDS011;56315;-33.902;151.160;2023-06-22T10:06:10;29.73;;;15.05;;
44646;SDS011;56315;-33.902;151.160;2023-06-22T10:08:38;19.08;;;12.13;;
44646;SDS011;56315;-33.902;151.160;2023-06-22T10:11:06;26.90;;;14.90;;
44646;SDS011;56315;-33.902;151.160;2023-06-22T10:13:33;28.02;;;17.30;;
44646;SDS011;56315;-33.902;151.160;2023-06-22T10:16:01;24.55;;;15.45;;
44646;SDS011;56315;-33.902;151.160;2023-06-22T10:18:29;24.30;;;16.08;;
44646;SDS011;56315;-33.902;151.160;2023-06-22T10:20:56;24.15;;;15.13;;
44646;SDS011;56315;-33.902;151.160;2023-06-22T10:23:24;24.77;;;14.55;;
44646;SDS011;56315;-33.902;151.160;2023-06-22T10:25:51;27.10;;;16.00;;
44646;SDS011;56315;-33.902;151.160;2023-06-22T10:28:18;24.80;;;14.35;;
44646;SDS011;56315;-33.902;151.160;2023-06-22T10:30:46;23.67;;;15.15;;
44646;SDS011;56315;-33.902;151.160;2023-06-22T10:33:13;25.77;;;15.07;;
44646;SDS011;56315;-33.902;151.160;2023-06-22T10:35:42;26.00;;;15.98;;
44646;SDS011;56315;-33.902;151.160;2023-06-22T10:38:09;23.38;;;15.07;;
44646;SDS011;56315;-33.902;151.160;2023-06-22T10:40:37;25.58;;;15.73;;
44646;SDS011;56315;-33.902;151.160;2023-06-22T10:43:06;22.90;;;15.68;;
44646;SDS011;56315;-33.902;151.160;2023-06-22T10:45:33;25.52;;;16.58;;
44646;SDS011;56315;-33.902;151.160;2023-06-22T10:48:01;23.55;;;13.88;;
44646;SDS011;56315;-33.902;151.160;2023-06-22T10:50:28;20.63;;;14.77;;
44646;SDS011;56315;-33.902;151.160;2023-06-22T10:52:56;28.52;;;14.95;;
44646;SDS011;56315;-33.902;151.160;2023-06-22T10:55:23;24.23;;;15.00;;
44646;SDS011;56315;-33.902;151.160;2023-06-22T10:57:51;23.13;;;15.48;;
44646;SDS011;56315;-33.902;151.160;2023-06-22T11:00:18;19.63;;;14.30;;
44646;SDS011;56315;-33.902;151.160;2023-06-22T11:02:47;24.48;;;13.88;;
44646;SDS011;56315;-33.902;151.160;2023-06-22T11:05:14;22.00;;;14.88;;
44646;SDS011;56315;-33.902;151.160;2023-06-22T11:07:42;19.92;;;14.43;;
44646;SDS011;56315;-33.902;151.160;2023-06-22T11:10:11;23.42;;;13.90;;
44646;SDS011;56315;-33.902;151.160;2023-06-22T11:12:39;18.75;;;14.38;;
44646;SDS011;56315;-33.902;151.160;2023-06-22T11:15:08;18.95;;;14.25;;
44646;SDS011;56315;-33.902;151.160;2023-06-22T11:17:36;19.15;;;14.15;;
44646;SDS011;56315;-33.902;151.160;2023-06-22T11:20:04;20.52;;;15.18;;
44646;SDS011;56315;-33.902;151.160;2023-06-22T11:22:38;20.88;;;14.93;;
44646;SDS011;56315;-33.902;151.160;2023-06-22T11:25:06;19.95;;;14.88;;
44646;SDS011;56315;-33.902;151.160;2023-06-22T11:27:34;22.15;;;14.77;;
44646;SDS011;56315;-33.902;151.160;2023-06-22T11:30:02;17.48;;;14.82;;
44646;SDS011;56315;-33.902;151.160;2023-06-22T11:32:30;25.50;;;15.85;;
44646;SDS011;56315;-33.902;151.160;2023-06-22T11:34:58;17.17;;;12.98;;
44646;SDS011;56315;-33.902;151.160;2023-06-22T11:37:26;19.27;;;15.15;;
44646;SDS011;56315;-33.902;151.160;2023-06-22T11:39:54;19.27;;;14.27;;
44646;SDS011;56315;-33.902;151.160;2023-06-22T11:42:22;27.35;;;15.95;;
44646;SDS011;56315;-33.902;151.160;2023-06-22T11:44:51;17.92;;;15.80;;
44646;SDS011;56315;-33.902;151.160;2023-06-22T11:47:18;19.15;;;14.70;;
44646;SDS011;56315;-33.902;151.160;2023-06-22T11:49:46;24.45;;;14.80;;
44646;SDS011;56315;-33.902;151.160;2023-06-22T11:52:14;20.95;;;15.05;;
44646;SDS011;56315;-33.902;151.160;2023-06-22T11:54:43;21.15;;;15.52;;
44646;SDS011;56315;-33.902;151.160;2023-06-22T11:57:11;18.02;;;13.52;;
44646;SDS011;56315;-33.902;151.160;2023-06-22T11:59:38;21.15;;;12.75;;
44646;SDS011;56315;-33.902;151.160;2023-06-22T12:02:06;16.63;;;10.68;;
44646;SDS011;56315;-33.902;151.160;2023-06-22T12:04:35;13.10;;;10.13;;
44646;SDS011;56315;-33.902;151.160;2023-06-22T12:07:03;18.05;;;12.32;;
44646;SDS011;56315;-33.902;151.160;2023-06-22T12:09:31;16.63;;;12.85;;
44646;SDS011;56315;-33.902;151.160;2023-06-22T12:11:58;14.57;;;12.48;;
44646;SDS011;56315;-33.902;151.160;2023-06-22T12:14:25;16.52;;;13.07;;
44646;SDS011;56315;-33.902;151.160;2023-06-22T12:16:53;22.95;;;12.68;;
44646;SDS011;56315;-33.902;151.160;2023-06-22T12:19:21;15.23;;;13.25;;
44646;SDS011;56315;-33.902;151.160;2023-06-22T12:21:48;21.63;;;13.95;;
44646;SDS011;56315;-33.902;151.160;2023-06-22T12:24:15;15.27;;;13.00;;
44646;SDS011;56315;-33.902;151.160;2023-06-22T12:26:43;20.85;;;13.75;;
44646;SDS011;56315;-33.902;151.160;2023-06-22T12:29:11;19.65;;;13.68;;
44646;SDS011;56315;-33.902;151.160;2023-06-22T12:31:38;14.95;;;13.35;;
44646;SDS011;56315;-33.902;151.160;2023-06-22T12:34:07;18.90;;;14.50;;
44646;SDS011;56315;-33.902;151.160;2023-06-22T12:36:35;16.40;;;13.60;;
44646;SDS011;56315;-33.902;151.160;2023-06-22T12:39:03;16.23;;;13.45;;
44646;SDS011;56315;-33.902;151.160;2023-06-22T12:41:31;19.10;;;14.13;;
44646;SDS011;56315;-33.902;151.160;2023-06-22T12:43:58;20.45;;;14.45;;
44646;SDS011;56315;-33.902;151.160;2023-06-22T12:46:26;17.98;;;13.60;;
44646;SDS011;56315;-33.902;151.160;2023-06-22T12:48:53;20.52;;;12.65;;
44646;SDS011;56315;-33.902;151.160;2023-06-22T12:51:21;15.30;;;13.00;;
44646;SDS011;56315;-33.902;151.160;2023-06-22T12:53:49;14.70;;;10.13;;
44646;SDS011;56315;-33.902;151.160;2023-06-22T12:56:17;19.33;;;13.27;;
44646;SDS011;56315;-33.902;151.160;2023-06-22T12:58:45;17.40;;;12.70;;
44646;SDS011;56315;-33.902;151.160;2023-06-22T13:01:12;13.57;;;11.85;;
44646;SDS011;56315;-33.902;151.160;2023-06-22T13:03:41;18.33;;;11.65;;
44646;SDS011;56315;-33.902;151.160;2023-06-22T13:06:09;16.85;;;12.32;;
44646;SDS011;56315;-33.902;151.160;2023-06-22T13:08:37;19.73;;;12.70;;
44646;SDS011;56315;-33.902;151.160;2023-06-22T13:11:05;17.25;;;12.95;;
44646;SDS011;56315;-33.902;151.160;2023-06-22T13:13:33;18.58;;;12.80;;
44646;SDS011;56315;-33.902;151.160;2023-06-22T13:16:01;16.50;;;12.85;;
44646;SDS011;56315;-33.902;151.160;2023-06-22T13:18:28;18.48;;;13.50;;
44646;SDS011;56315;-33.902;151.160;2023-06-22T13:20:56;14.27;;;9.52;;
44646;SDS011;56315;-33.902;151.160;2023-06-22T13:23:23;16.20;;;13.02;;
44646;SDS011;56315;-33.902;151.160;2023-06-22T13:25:51;19.25;;;13.82;;
44646;SDS011;56315;-33.902;151.160;2023-06-22T13:28:18;17.38;;;14.27;;
44646;SDS011;56315;-33.902;151.160;2023-06-22T13:30:47;17.77;;;14.18;;
44646;SDS011;56315;-33.902;151.160;2023-06-22T13:33:15;16.35;;;13.52;;
44646;SDS011;56315;-33.902;151.160;2023-06-22T13:35:42;15.52;;;13.85;;
44646;SDS011;56315;-33.902;151.160;2023-06-22T13:38:10;18.80;;;13.88;;
44646;SDS011;56315;-33.902;151.160;2023-06-22T13:40:38;20.55;;;15.18;;
44646;SDS011;56315;-33.902;151.160;2023-06-22T13:43:06;18.63;;;15.23;;
44646;SDS011;56315;-33.902;151.160;2023-06-22T13:45:33;14.63;;;12.25;;
44646;SDS011;56315;-33.902;151.160;2023-06-22T13:48:01;14.30;;;12.60;;
44646;SDS011;56315;-33.902;151.160;2023-06-22T13:50:28;18.10;;;14.95;;
44646;SDS011;56315;-33.902;151.160;2023-06-22T13:52:56;16.98;;;14.77;;
44646;SDS011;56315;-33.902;151.160;2023-06-22T13:55:24;16.73;;;13.27;;
44646;SDS011;56315;-33.902;151.160;2023-06-22T13:57:52;18.70;;;13.52;;
44646;SDS011;56315;-33.902;151.160;2023-06-22T14:00:19;19.17;;;13.88;;
44646;SDS011;56315;-33.902;151.160;2023-06-22T14:02:47;17.00;;;12.55;;